createdAt,value
2023-06-19T00:02:11.330Z,19.59
2023-06-19T00:04:38.623Z,19.60
2023-06-19T00:07:05.865Z,19.65
2023-06-19T00:09:33.953Z,19.67
2023-06-19T00:12:02.623Z,19.67
2023-06-19T00:14:29.781Z,19.75
2023-06-19T00:16:57.350Z,19.75
2023-06-19T00:19:24.466Z,19.69
2023-06-19T00:22:00.353Z,19.82
2023-06-19T00:24:27.610Z,19.80
2023-06-19T00:26:54.605Z,19.77
2023-06-19T00:29:22.536Z,19.78
2023-06-19T00:31:53.259Z,19.78
2023-06-19T00:34:20.409Z,19.72
2023-06-19T00:36:47.883Z,19.75
2023-06-19T00:39:14.918Z,19.74
2023-06-19T00:41:43.279Z,19.74
2023-06-19T00:44:10.916Z,19.74
2023-06-19T00:46:41.790Z,19.66
2023-06-19T00:49:15.948Z,19.73
2023-06-19T00:51:43.693Z,19.74
2023-06-19T00:54:10.851Z,19.74
2023-06-19T00:56:38.859Z,19.72
2023-06-19T00:59:16.135Z,19.71
2023-06-19T01:01:44.014Z,19.66
2023-06-19T01:04:11.062Z,19.61
2023-06-19T01:07:11.139Z,19.54
2023-06-19T01:09:57.385Z,19.46
2023-06-19T01:12:34.972Z,19.42
2023-06-19T01:15:04.872Z,19.44
2023-06-19T01:17:37.922Z,19.45
2023-06-19T01:20:12.700Z,19.42
2023-06-19T01:22:47.739Z,19.36
2023-06-19T01:25:15.264Z,19.50
2023-06-19T01:27:46.098Z,19.51
2023-06-19T01:30:14.234Z,19.44
2023-06-19T01:32:47.272Z,19.51
2023-06-19T01:35:18.570Z,19.41
2023-06-19T01:37:48.322Z,19.45
2023-06-19T01:40:18.729Z,19.43
2023-06-19T01:42:46.266Z,19.43
2023-06-19T01:45:13.624Z,19.46
2023-06-19T01:47:40.742Z,19.44
2023-06-19T01:50:12.857Z,19.50
2023-06-19T01:52:40.399Z,19.58
2023-06-19T01:55:09.060Z,19.55
2023-06-19T01:57:37.535Z,19.50
2023-06-19T02:00:10.590Z,19.44
2023-06-19T02:02:44.097Z,19.42
2023-06-19T02:05:12.592Z,19.41
2023-06-19T02:07:43.245Z,19.39
2023-06-19T02:10:10.563Z,19.36
2023-06-19T02:12:37.904Z,19.33
2023-06-19T02:15:07.314Z,19.33
2023-06-19T02:17:34.412Z,19.37
2023-06-19T02:20:13.185Z,19.35
2023-06-19T02:22:42.250Z,19.32
2023-06-19T02:25:09.998Z,19.26
2023-06-19T02:27:37.319Z,19.25
2023-06-19T02:30:06.447Z,19.27
2023-06-19T02:32:33.657Z,19.32
2023-06-19T02:35:03.196Z,19.38
2023-06-19T02:37:31.006Z,19.38
2023-06-19T02:39:58.959Z,19.44
2023-06-19T02:42:25.828Z,19.46
2023-06-19T02:44:56.378Z,19.43
2023-06-19T02:47:23.742Z,19.42
2023-06-19T02:49:51.015Z,19.42
2023-06-19T02:52:18.095Z,19.41
2023-06-19T02:54:44.879Z,19.37
2023-06-19T02:57:16.213Z,19.30
2023-06-19T02:59:43.730Z,19.42
2023-06-19T03:02:10.721Z,19.44
2023-06-19T03:04:38.318Z,19.46
2023-06-19T03:07:05.709Z,19.50
2023-06-19T03:09:32.672Z,19.41
2023-06-19T03:12:00.042Z,19.48
2023-06-19T03:14:27.040Z,19.50
2023-06-19T03:16:53.955Z,19.48
2023-06-19T03:19:21.195Z,19.44
2023-06-19T03:21:48.544Z,19.47
2023-06-19T03:24:15.783Z,19.43
2023-06-19T03:26:43.217Z,19.42
2023-06-19T03:29:13.588Z,19.41
2023-06-19T03:31:53.090Z,19.40
2023-06-19T03:34:22.110Z,19.48
2023-06-19T03:36:51.817Z,19.51
2023-06-19T03:39:19.281Z,19.52
2023-06-19T03:41:46.739Z,19.55
2023-06-19T03:44:14.467Z,19.50
2023-06-19T03:46:41.606Z,19.54
2023-06-19T03:49:10.821Z,19.55
2023-06-19T03:51:37.876Z,19.52
2023-06-19T03:54:11.007Z,19.52
2023-06-19T03:56:38.180Z,19.49
2023-06-19T03:59:05.400Z,19.55
2023-06-19T04:01:35.967Z,19.59
2023-06-19T04:04:10.977Z,19.62
2023-06-19T04:06:37.970Z,19.65
2023-06-19T04:09:26.417Z,19.76
2023-06-19T04:11:54.616Z,19.90
2023-06-19T04:14:24.944Z,20.00
2023-06-19T04:16:51.857Z,20.06
2023-06-19T04:19:21.138Z,20.15
2023-06-19T04:21:48.210Z,20.23
2023-06-19T04:24:15.620Z,20.37
2023-06-19T04:26:43.418Z,20.41
2023-06-19T04:29:19.723Z,20.45
2023-06-19T04:31:50.181Z,20.48
2023-06-19T04:34:22.310Z,20.44
2023-06-19T04:36:49.584Z,20.46
2023-06-19T04:39:17.536Z,20.47
2023-06-19T04:41:45.330Z,20.49
2023-06-19T04:44:15.930Z,20.52
2023-06-19T04:46:45.345Z,20.64
2023-06-19T04:49:12.641Z,20.72
2023-06-19T04:51:43.158Z,20.78
2023-06-19T04:54:16.909Z,20.77
2023-06-19T04:56:44.012Z,20.63
2023-06-19T04:59:11.021Z,20.69
2023-06-19T05:01:41.585Z,20.71
2023-06-19T05:04:15.033Z,20.73
2023-06-19T05:06:43.887Z,20.84
2023-06-19T05:09:12.427Z,20.91
2023-06-19T05:11:39.385Z,20.96
2023-06-19T05:14:06.641Z,21.06
2023-06-19T05:16:37.058Z,21.15
2023-06-19T05:19:04.570Z,21.30
2023-06-19T05:21:31.741Z,21.40
2023-06-19T05:23:58.972Z,21.43
2023-06-19T05:26:27.384Z,21.48
2023-06-19T05:28:54.703Z,21.59
2023-06-19T05:31:21.519Z,21.69
2023-06-19T05:33:49.077Z,21.69
2023-06-19T05:36:15.917Z,21.65
2023-06-19T05:38:43.177Z,21.61
2023-06-19T05:41:10.724Z,21.55
2023-06-19T05:43:37.581Z,21.58
2023-06-19T05:46:05.361Z,21.51
2023-06-19T05:48:32.459Z,21.42
2023-06-19T05:50:59.937Z,21.48
2023-06-19T05:53:27.098Z,21.53
2023-06-19T05:55:54.176Z,21.62
2023-06-19T05:58:22.683Z,21.75
2023-06-19T06:00:49.975Z,21.83
2023-06-19T06:03:17.088Z,21.88
2023-06-19T06:05:44.679Z,21.97
2023-06-19T06:08:11.997Z,22.01
2023-06-19T06:10:38.982Z,22.04
2023-06-19T06:13:05.948Z,22.09
2023-06-19T06:15:33.090Z,22.21
2023-06-19T06:18:00.425Z,22.27
2023-06-19T06:20:27.964Z,22.29
2023-06-19T06:22:54.790Z,22.41
2023-06-19T06:25:22.238Z,22.50
2023-06-19T06:27:49.497Z,22.41
2023-06-19T06:30:19.199Z,22.41
2023-06-19T06:32:47.581Z,22.36
2023-06-19T06:35:15.096Z,22.41
2023-06-19T06:37:42.638Z,22.60
2023-06-19T06:40:12.966Z,22.69
2023-06-19T06:42:40.423Z,22.74
2023-06-19T06:45:08.584Z,22.83
2023-06-19T06:47:36.163Z,22.70
2023-06-19T06:50:03.721Z,22.79
2023-06-19T06:52:31.683Z,22.76
2023-06-19T06:54:59.329Z,22.70
2023-06-19T06:57:26.363Z,22.71
2023-06-19T06:59:53.344Z,22.74
2023-06-19T07:02:20.605Z,22.90
2023-06-19T07:04:47.762Z,23.04
2023-06-19T07:07:14.932Z,23.00
2023-06-19T07:09:42.196Z,23.02
2023-06-19T07:12:09.341Z,23.14
2023-06-19T07:14:36.603Z,23.34
2023-06-19T07:17:04.003Z,23.55
2023-06-19T07:19:31.253Z,23.66
2023-06-19T07:21:58.477Z,23.91
2023-06-19T07:24:25.814Z,23.71
2023-06-19T07:26:53.051Z,23.69
2023-06-19T07:29:20.322Z,23.57
2023-06-19T07:31:47.560Z,23.44
2023-06-19T07:34:15.054Z,23.35
2023-06-19T07:36:43.434Z,23.26
2023-06-19T07:39:10.955Z,23.15
2023-06-19T07:41:38.552Z,23.12
2023-06-19T07:44:05.722Z,23.10
2023-06-19T07:46:33.021Z,23.07
2023-06-19T07:49:00.205Z,22.97
2023-06-19T07:51:27.593Z,23.05
2023-06-19T07:53:54.743Z,23.05
2023-06-19T07:56:21.590Z,23.15
2023-06-19T07:58:49.086Z,23.22
2023-06-19T08:01:17.042Z,23.38
2023-06-19T08:03:44.132Z,23.54
2023-06-19T08:06:11.279Z,23.69
2023-06-19T08:08:38.650Z,23.92
2023-06-19T08:11:05.478Z,24.22
2023-06-19T08:13:32.559Z,24.29
2023-06-19T08:16:00.070Z,24.37
2023-06-19T08:18:27.470Z,24.43
2023-06-19T08:20:55.682Z,24.38
2023-06-19T08:23:22.883Z,24.30
2023-06-19T08:25:52.124Z,24.09
2023-06-19T08:28:19.598Z,23.97
2023-06-19T08:30:47.170Z,23.93
2023-06-19T08:33:17.469Z,23.85
2023-06-19T08:35:45.499Z,23.88
2023-06-19T08:38:12.692Z,23.81
2023-06-19T08:40:40.346Z,23.97
2023-06-19T08:43:07.734Z,24.03
2023-06-19T08:45:35.371Z,24.16
2023-06-19T08:48:05.018Z,24.26
2023-06-19T08:50:38.803Z,24.45
2023-06-19T08:53:06.335Z,24.58
2023-06-19T08:55:33.626Z,24.59
2023-06-19T08:58:00.623Z,24.61
2023-06-19T09:00:30.616Z,24.54
2023-06-19T09:03:13.942Z,24.60
2023-06-19T09:05:51.859Z,24.65
2023-06-19T09:08:23.184Z,24.74
2023-06-19T09:11:01.775Z,24.75
2023-06-19T09:13:30.565Z,24.83
2023-06-19T09:16:09.295Z,24.99
2023-06-19T09:18:48.283Z,25.31
2023-06-19T09:21:26.424Z,25.38
2023-06-19T09:23:54.216Z,25.25
2023-06-19T09:26:28.547Z,25.26
2023-06-19T09:28:56.750Z,25.45
2023-06-19T09:31:34.632Z,25.44
2023-06-19T09:34:01.855Z,25.51
2023-06-19T09:36:30.490Z,25.50
2023-06-19T09:39:00.342Z,25.49
2023-06-19T09:41:27.803Z,25.49
2023-06-19T09:44:01.173Z,25.60
2023-06-19T09:46:33.655Z,25.38
2023-06-19T09:49:03.253Z,25.51
2023-06-19T09:51:38.477Z,25.63
2023-06-19T09:54:07.712Z,25.69
2023-06-19T09:56:35.600Z,25.73
2023-06-19T09:59:05.018Z,25.86
2023-06-19T10:01:34.130Z,25.84
2023-06-19T10:04:09.118Z,25.90
2023-06-19T10:06:46.318Z,26.08
2023-06-19T10:09:16.152Z,25.95
2023-06-19T10:11:52.996Z,25.80
2023-06-19T10:14:24.134Z,25.74
2023-06-19T10:16:51.552Z,25.82
2023-06-19T10:19:23.339Z,25.58
2023-06-19T10:21:55.554Z,25.72
2023-06-19T10:24:26.785Z,25.58
2023-06-19T10:27:01.792Z,25.58
2023-06-19T10:29:47.117Z,25.50
2023-06-19T10:32:21.004Z,25.90
2023-06-19T10:34:50.207Z,26.02
2023-06-19T10:37:18.038Z,26.22
2023-06-19T10:39:45.884Z,26.26
2023-06-19T10:42:13.276Z,26.11
2023-06-19T10:44:40.483Z,26.15
2023-06-19T10:47:11.579Z,26.27
2023-06-19T10:49:38.581Z,26.36
2023-06-19T10:52:05.913Z,26.34
2023-06-19T10:54:33.776Z,26.43
2023-06-19T10:57:05.478Z,26.36
2023-06-19T10:59:35.149Z,26.22
2023-06-19T11:02:02.402Z,26.13
2023-06-19T11:04:29.544Z,25.96
2023-06-19T11:06:57.875Z,25.73
2023-06-19T11:09:25.859Z,25.69
2023-06-19T11:11:53.401Z,25.62
2023-06-19T11:14:20.917Z,25.49
2023-06-19T11:16:49.445Z,25.28
2023-06-19T11:19:21.419Z,25.31
2023-06-19T11:22:10.165Z,25.20
2023-06-19T11:24:37.573Z,25.02
2023-06-19T11:27:06.097Z,25.01
2023-06-19T11:29:45.779Z,24.89
2023-06-19T11:32:26.269Z,24.77
2023-06-19T11:34:54.738Z,24.69
2023-06-19T11:37:22.499Z,24.63
2023-06-19T11:39:55.489Z,24.57
2023-06-19T11:42:26.781Z,24.52
2023-06-19T11:44:58.141Z,24.38
2023-06-19T11:47:27.009Z,24.30
2023-06-19T11:49:55.475Z,24.26
2023-06-19T11:52:22.706Z,24.11
2023-06-19T11:54:49.979Z,23.92
2023-06-19T11:57:22.283Z,23.78
2023-06-19T11:59:49.913Z,23.48
2023-06-19T12:02:16.877Z,23.30
2023-06-19T12:04:44.759Z,23.11
2023-06-19T12:07:16.227Z,23.12
2023-06-19T12:09:46.988Z,23.04
2023-06-19T12:12:14.543Z,23.00
2023-06-19T12:14:42.144Z,22.96
2023-06-19T12:17:09.843Z,22.95
2023-06-19T12:19:37.320Z,22.86
2023-06-19T12:22:06.311Z,22.77
2023-06-19T12:24:33.492Z,22.68
2023-06-19T12:27:04.844Z,22.68
2023-06-19T12:29:36.760Z,22.66
2023-06-19T12:32:04.893Z,22.77
2023-06-19T12:34:32.334Z,22.77
2023-06-19T12:36:59.472Z,22.83
2023-06-19T12:39:27.495Z,22.99
2023-06-19T12:41:54.596Z,23.14
2023-06-19T12:44:23.115Z,23.21
2023-06-19T12:46:50.506Z,23.48
2023-06-19T12:49:17.752Z,23.84
2023-06-19T12:51:44.860Z,24.10
2023-06-19T12:54:12.224Z,24.36
2023-06-19T12:56:39.664Z,24.41
2023-06-19T12:59:06.826Z,24.57
2023-06-19T13:01:33.998Z,24.76
2023-06-19T13:04:01.446Z,24.75
2023-06-19T13:06:29.032Z,24.96
2023-06-19T13:08:58.558Z,24.97
2023-06-19T13:11:25.871Z,25.01
2023-06-19T13:13:52.687Z,25.14
2023-06-19T13:16:30.161Z,25.35
2023-06-19T13:19:08.002Z,25.54
2023-06-19T13:21:53.596Z,25.82
2023-06-19T13:24:20.485Z,25.94
2023-06-19T13:26:47.945Z,26.18
2023-06-19T13:29:14.919Z,26.25
2023-06-19T13:31:42.039Z,26.22
2023-06-19T13:34:15.158Z,26.14
2023-06-19T13:36:42.311Z,26.35
2023-06-19T13:39:09.280Z,26.41
2023-06-19T13:41:36.480Z,26.58
2023-06-19T13:44:03.899Z,26.50
2023-06-19T13:46:32.929Z,26.64
2023-06-19T13:49:00.410Z,26.95
2023-06-19T13:51:27.659Z,27.14
2023-06-19T13:53:55.804Z,27.30
2023-06-19T13:56:24.708Z,27.43
2023-06-19T13:58:51.771Z,27.70
2023-06-19T14:01:19.072Z,27.76
2023-06-19T14:03:46.747Z,27.55
2023-06-19T14:06:13.870Z,27.14
2023-06-19T14:08:41.448Z,27.00
2023-06-19T14:11:08.353Z,27.08
2023-06-19T14:13:35.668Z,27.16
2023-06-19T14:16:03.463Z,27.29
2023-06-19T14:18:30.424Z,27.41
2023-06-19T14:20:57.779Z,27.55
2023-06-19T14:23:24.845Z,27.44
2023-06-19T14:25:51.836Z,26.90
2023-06-19T14:28:19.016Z,26.66
2023-06-19T14:30:46.090Z,26.62
2023-06-19T14:33:16.498Z,26.48
2023-06-19T14:35:47.266Z,26.40
2023-06-19T14:38:17.767Z,26.47
2023-06-19T14:40:45.185Z,26.54
2023-06-19T14:43:12.194Z,26.60
2023-06-19T14:45:41.129Z,26.88
2023-06-19T14:48:08.159Z,27.24
2023-06-19T14:50:36.721Z,27.59
2023-06-19T14:53:03.932Z,27.75
2023-06-19T14:55:31.021Z,27.79
2023-06-19T14:57:58.472Z,27.41
2023-06-19T15:00:26.247Z,27.01
2023-06-19T15:02:53.672Z,26.49
2023-06-19T15:05:20.752Z,26.02
2023-06-19T15:07:47.805Z,25.53
2023-06-19T15:10:14.858Z,25.19
2023-06-19T15:12:42.120Z,24.94
2023-06-19T15:15:09.764Z,24.70
2023-06-19T15:17:36.985Z,24.59
2023-06-19T15:20:05.690Z,24.45
2023-06-19T15:22:32.842Z,24.27
2023-06-19T15:25:00.042Z,24.13
2023-06-19T15:27:27.025Z,23.95
2023-06-19T15:29:54.491Z,23.97
2023-06-19T15:32:21.741Z,23.90
2023-06-19T15:34:49.551Z,23.81
2023-06-19T15:37:16.938Z,23.75
2023-06-19T15:39:44.356Z,23.63
2023-06-19T15:42:12.392Z,23.55
2023-06-19T15:44:39.350Z,23.56
2023-06-19T15:47:07.196Z,23.44
2023-06-19T15:49:34.511Z,23.39
2023-06-19T15:52:06.692Z,23.29
2023-06-19T15:54:33.811Z,23.11
2023-06-19T15:57:00.972Z,22.99
2023-06-19T15:59:28.152Z,22.95
2023-06-19T16:04:22.526Z,22.63
2023-06-19T16:06:49.357Z,22.64
2023-06-19T16:09:16.674Z,22.61
2023-06-19T16:11:43.670Z,22.58
2023-06-19T16:14:10.771Z,22.55
2023-06-19T16:16:38.074Z,22.50
2023-06-19T16:19:05.490Z,22.40
2023-06-19T16:21:33.336Z,22.31
2023-06-19T16:24:09.155Z,22.22
2023-06-19T16:26:36.498Z,22.24
2023-06-19T16:29:04.674Z,22.25
2023-06-19T16:31:31.704Z,22.20
2023-06-19T16:33:58.767Z,22.10
2023-06-19T16:36:26.022Z,21.64
2023-06-19T16:38:53.208Z,21.15
2023-06-19T16:41:21.015Z,20.42
2023-06-19T16:43:48.428Z,19.75
2023-06-19T16:46:16.108Z,19.37
2023-06-19T16:48:43.339Z,18.61
2023-06-19T16:51:10.334Z,17.97
2023-06-19T16:53:37.226Z,17.54
2023-06-19T16:56:04.278Z,17.30
2023-06-19T16:58:34.320Z,17.32
2023-06-19T17:01:01.767Z,17.37
2023-06-19T17:03:28.922Z,17.38
2023-06-19T17:05:56.128Z,17.45
2023-06-19T17:08:26.594Z,17.47
2023-06-19T17:10:54.810Z,17.57
2023-06-19T17:13:21.948Z,17.52
2023-06-19T17:15:50.353Z,17.53
2023-06-19T17:18:17.686Z,17.35
2023-06-19T17:20:44.778Z,17.50
2023-06-19T17:23:12.182Z,17.64
2023-06-19T17:25:43.075Z,17.65
2023-06-19T17:28:13.262Z,17.53
2023-06-19T17:30:42.055Z,17.47
2023-06-19T17:33:10.701Z,17.62
2023-06-19T17:35:37.756Z,17.71
2023-06-19T17:38:04.910Z,17.73
2023-06-19T17:40:32.035Z,17.77
2023-06-19T17:42:59.231Z,17.89
2023-06-19T17:45:26.565Z,17.89
2023-06-19T17:47:53.737Z,17.90
2023-06-19T17:50:21.304Z,17.92
2023-06-19T17:52:48.316Z,17.89
2023-06-19T17:55:15.485Z,17.81
2023-06-19T17:57:42.553Z,17.79
2023-06-19T18:00:10.345Z,17.85
2023-06-19T18:02:40.901Z,17.82
2023-06-19T18:05:08.253Z,17.87
2023-06-19T18:07:35.264Z,17.86
2023-06-19T18:10:02.268Z,17.83
2023-06-19T18:12:29.228Z,17.84
2023-06-19T18:14:56.171Z,17.84
2023-06-19T18:17:23.296Z,17.89
2023-06-19T18:19:50.308Z,17.87
2023-06-19T18:22:17.676Z,17.91
2023-06-19T18:24:44.540Z,17.96
2023-06-19T18:27:11.680Z,18.03
2023-06-19T18:29:38.714Z,18.07
2023-06-19T18:32:06.106Z,18.03
2023-06-19T18:34:32.940Z,17.92
2023-06-19T18:37:00.777Z,17.88
2023-06-19T18:39:27.908Z,17.86
2023-06-19T18:41:56.035Z,17.88
2023-06-19T18:44:23.138Z,17.88
2023-06-19T18:46:50.408Z,17.82
2023-06-19T18:49:17.231Z,17.85
2023-06-19T18:51:44.293Z,17.85
2023-06-19T18:54:11.176Z,17.78
2023-06-19T18:56:38.542Z,17.79
2023-06-19T18:59:05.516Z,17.77
2023-06-19T19:01:32.616Z,17.81
2023-06-19T19:03:59.544Z,17.81
2023-06-19T19:06:26.675Z,17.76
2023-06-19T19:08:57.531Z,17.72
2023-06-19T19:11:24.971Z,17.70
2023-06-19T19:13:51.839Z,17.73
2023-06-19T19:16:19.586Z,17.75
2023-06-19T19:18:47.163Z,17.78
2023-06-19T19:21:14.304Z,17.77
2023-06-19T19:23:41.302Z,17.86
2023-06-19T19:26:08.458Z,17.78
2023-06-19T19:28:35.333Z,17.76
2023-06-19T19:31:06.107Z,17.69
2023-06-19T19:33:37.986Z,17.70
2023-06-19T19:36:05.977Z,17.68
2023-06-19T19:38:32.958Z,17.70
2023-06-19T19:40:59.761Z,17.68
2023-06-19T19:43:27.096Z,17.59
2023-06-19T19:45:54.897Z,17.61
2023-06-19T19:48:22.010Z,17.58
2023-06-19T19:50:49.169Z,17.59
2023-06-19T19:53:16.275Z,17.56
2023-06-19T19:55:43.534Z,17.56
2023-06-19T19:58:10.679Z,17.54
2023-06-19T20:00:37.644Z,17.58
2023-06-19T20:03:04.752Z,17.48
2023-06-19T20:05:31.863Z,17.47
2023-06-19T20:07:59.239Z,17.38
2023-06-19T20:10:26.907Z,17.43
2023-06-19T20:12:54.167Z,17.40
2023-06-19T20:15:23.055Z,17.45
2023-06-19T20:17:50.179Z,17.47
2023-06-19T20:20:17.573Z,17.43
2023-06-19T20:22:44.569Z,17.41
2023-06-19T20:25:11.782Z,17.37
2023-06-19T20:27:38.784Z,17.33
2023-06-19T20:30:06.408Z,17.27
2023-06-19T20:32:33.559Z,17.32
2023-06-19T20:35:00.434Z,17.32
2023-06-19T20:37:27.301Z,17.30
2023-06-19T20:39:55.283Z,17.29
2023-06-19T20:42:22.645Z,17.35
2023-06-19T20:44:51.001Z,17.34
2023-06-19T20:47:18.412Z,17.33
2023-06-19T20:49:45.356Z,17.40
2023-06-19T20:52:12.230Z,17.45
2023-06-19T20:54:39.750Z,17.36
2023-06-19T20:57:07.408Z,17.42
2023-06-19T20:59:35.208Z,17.44
2023-06-19T21:02:02.968Z,17.43
2023-06-19T21:04:30.901Z,17.50
2023-06-19T21:06:58.511Z,17.47
2023-06-19T21:09:26.875Z,17.39
2023-06-19T21:11:54.274Z,17.32
2023-06-19T21:14:21.314Z,17.28
2023-06-19T21:16:48.664Z,17.14
2023-06-19T21:19:15.752Z,17.09
2023-06-19T21:21:42.872Z,17.08
2023-06-19T21:24:09.998Z,17.03
2023-06-19T21:26:38.660Z,16.96
2023-06-19T21:29:05.797Z,16.86
2023-06-19T21:31:32.809Z,16.86
2023-06-19T21:33:59.943Z,16.82
2023-06-19T21:36:26.838Z,16.79
2023-06-19T21:38:53.669Z,16.72
2023-06-19T21:41:20.865Z,16.80
2023-06-19T21:43:48.585Z,16.76
2023-06-19T21:46:15.576Z,16.80
2023-06-19T21:48:42.731Z,16.81
2023-06-19T21:51:09.708Z,16.82
2023-06-19T21:53:36.818Z,16.81
2023-06-19T21:56:04.633Z,16.83
2023-06-19T21:58:31.667Z,16.81
2023-06-19T22:00:58.740Z,16.80
2023-06-19T22:03:25.929Z,16.74
2023-06-19T22:05:53.011Z,16.80
2023-06-19T22:08:33.802Z,16.74
2023-06-19T22:11:07.484Z,16.79
2023-06-19T22:13:36.275Z,16.79
2023-06-19T22:16:03.374Z,16.75
2023-06-19T22:18:30.658Z,16.77
2023-06-19T22:20:57.569Z,16.73
2023-06-19T22:23:24.669Z,16.64
2023-06-19T22:25:51.820Z,16.77
2023-06-19T22:28:18.712Z,16.72
2023-06-19T22:30:45.868Z,16.70
2023-06-19T22:33:12.691Z,16.67
2023-06-19T22:35:39.682Z,16.74
2023-06-19T22:38:06.679Z,16.71
2023-06-19T22:40:33.644Z,16.76
2023-06-19T22:43:00.732Z,16.80
2023-06-19T22:45:28.041Z,16.70
2023-06-19T22:47:55.222Z,16.64
2023-06-19T22:50:22.656Z,16.68
2023-06-19T22:52:49.505Z,16.68
2023-06-19T22:55:16.530Z,16.54
2023-06-19T22:57:43.618Z,16.43
2023-06-19T23:00:14.319Z,16.49
2023-06-19T23:02:43.096Z,16.48
2023-06-19T23:05:11.812Z,16.54
2023-06-19T23:07:39.954Z,16.57
2023-06-19T23:10:10.999Z,16.49
2023-06-19T23:12:38.108Z,16.31
2023-06-19T23:15:07.807Z,16.36
2023-06-19T23:17:35.420Z,16.40
2023-06-19T23:20:02.639Z,16.40
2023-06-19T23:22:29.680Z,16.36
2023-06-19T23:24:56.540Z,16.36
2023-06-19T23:27:23.505Z,16.38
2023-06-19T23:29:52.449Z,16.28
2023-06-19T23:32:19.565Z,16.22
2023-06-19T23:34:46.632Z,16.17
2023-06-19T23:37:14.039Z,16.15
2023-06-19T23:39:41.331Z,16.08
2023-06-19T23:42:08.445Z,16.11
2023-06-19T23:44:35.614Z,16.12
2023-06-19T23:47:02.652Z,16.06
2023-06-19T23:49:29.784Z,16.00
2023-06-19T23:51:56.730Z,16.06
2023-06-19T23:54:23.687Z,16.05
2023-06-19T23:56:50.581Z,16.05
2023-06-19T23:59:17.538Z,15.99
